CheckWX is a tool to help pilots better visualize weather data.  It is not intended as a substitute for an official pre-flight weather briefing.

04:44:03 UTC

KGFL TAF
Floyd Bennett Memorial Airport
Glens Falls, New York, USA
KGFL 170309Z 1703/1724 00000KT 6SM BR SKC TEMPO 1703/1707 1SM BR FM170700 00000KT 2SM BR SCT002 TEMPO 1707/1711 1/2SM FG BKN002 FM171230 VRB03KT P6SM SKC FM171500 02007KT P6SM SKC FM172200 VRB03KT P6SM SKC

Sep-17@
03:00 UTC

Sep-17 @ 03:00 UTC

Sep-17@
07:00 UTC

Sep-17 @ 07:00 UTC

KGFL 170309Z 1703/1724 00000KT 6SM BR SKC
Conditions
Mist
Cloud Levels
  • Clear skies

Sep-17@
03:00 UTC

Sep-17 @ 03:00 UTC

Sep-17@
07:00 UTC

Sep-17 @ 07:00 UTC

TEMPO 1703/1707 1SM BR

Temporary

Temporary Changes expected for less than half the time period

Conditions
Mist

Sep-17@
07:00 UTC

Sep-17 @ 07:00 UTC

Sep-17@
11:00 UTC

Sep-17 @ 11:00 UTC

TEMPO 1707/1711 1/2SM FG BKN002

Temporary

Temporary Changes expected for less than half the time period

Conditions
Fog
Cloud Levels
  • Broken at 200' AGL

Sep-17@
07:00 UTC

Sep-17 @ 07:00 UTC

Sep-17@
12:30 UTC

Sep-17 @ 12:30 UTC

FM170700 00000KT 2SM BR SCT002

From

From Standard forecast or significant change

Conditions
Mist
Cloud Levels
  • Scattered at 200' AGL

Sep-17@
12:30 UTC

Sep-17 @ 12:30 UTC

Sep-17@
15:00 UTC

Sep-17 @ 15:00 UTC

FM171230 VRB03KT P6SM SKC

From

From Standard forecast or significant change

Wind
  • Variable at 3 KTS
Cloud Levels
  • Clear skies

Sep-17@
15:00 UTC

Sep-17 @ 15:00 UTC

Sep-17@
22:00 UTC

Sep-17 @ 22:00 UTC

FM171500 02007KT P6SM SKC

From

From Standard forecast or significant change

Wind
  • 020° at 7 KTS
Cloud Levels
  • Clear skies

Sep-17@
22:00 UTC

Sep-17 @ 22:00 UTC

Sep-18@
00:00 UTC

Sep-18 @ 00:00 UTC

FM172200 VRB03KT P6SM SKC

From

From Standard forecast or significant change

Wind
  • Variable at 3 KTS
Cloud Levels
  • Clear skies